Time;durP1;ratioP1;P1;durP2;ratioP2;P2;SDS_P1;SDS_P2;PMS_P1;PMS_P2;Temp;Humidity;BMP_temperature;BMP_pressure;BME280_temperature;BME280_humidity;BME280_pressure;Samples;Min_cycle;Max_cycle;Signal;HPM_P1;HPM_P2
2022/01/18 00:00:39;;;;;;;40.45;4.70;;;6.60;99.90;;;;;;5080796;27;20049;-84
2022/01/18 00:03:06;;;;;;;38.85;4.43;;;6.10;99.90;;;;;;5094318;27;20039;-84
2022/01/18 00:05:32;;;;;;;35.25;4.40;;;6.30;99.90;;;;;;5094863;27;20082;-83
2022/01/18 00:07:58;;;;;;;45.22;4.28;;;6.10;99.90;;;;;;5130207;27;20531;-84
2022/01/18 00:10:28;;;;;;;43.22;4.05;;;7.70;99.90;;;;;;5130144;27;20533;-84
2022/01/18 00:13:34;;;;;;;46.45;6.65;;;6.30;99.90;;;;;;5112897;27;20088;-84
2022/01/18 00:15:55;;;;;;;27.13;3.05;;;6.00;99.90;;;;;;5109033;27;20051;-84
2022/01/18 00:18:22;;;;;;;41.10;4.57;;;5.90;99.90;;;;;;5111933;27;20398;-83
2022/01/18 00:23:20;;;;;;;36.38;4.10;;;5.90;99.90;;;;;;5129772;27;20494;-84
2022/01/18 00:25:50;;;;;;;45.25;4.70;;;5.80;99.90;;;;;;5078342;27;20050;-84
2022/01/18 00:28:17;;;;;;;38.85;4.40;;;7.60;99.90;;;;;;5110413;27;20047;-84
2022/01/18 00:36:10;;;;;;;38.22;4.07;;;5.70;99.90;;;;;;5111357;27;20084;-84
2022/01/18 00:38:47;;;;;;;46.00;4.10;;;5.70;99.90;;;;;;5130687;27;20066;-84
2022/01/18 00:41:15;;;;;;;35.90;4.18;;;6.20;99.90;;;;;;5111372;27;20043;-84
2022/01/18 00:43:42;;;;;;;35.10;3.75;;;5.60;99.90;;;;;;5111561;27;20055;-84
2022/01/18 00:46:09;;;;;;;26.67;3.50;;;7.10;99.90;;;;;;5129373;27;20038;-84
2022/01/18 00:48:35;;;;;;;43.22;4.55;;;5.80;99.90;;;;;;5129451;27;20062;-84
2022/01/18 00:51:04;;;;;;;45.13;4.03;;;5.50;99.90;;;;;;5111846;27;20062;-83
2022/01/18 00:53:35;;;;;;;26.58;5.38;;;5.60;99.90;;;;;;5129521;27;20089;-84
2022/01/18 00:58:35;;;;;;;51.78;5.45;;;5.50;99.90;;;;;;5109958;27;20055;-84
2022/01/18 01:01:02;;;;;;;33.63;4.00;;;5.50;99.90;;;;;;5110938;27;20066;-84
2022/01/18 01:03:28;;;;;;;46.90;4.20;;;5.50;99.90;;;;;;5093771;27;20475;-83
2022/01/18 01:05:53;;;;;;;48.17;4.72;;;5.50;99.90;;;;;;5093624;27;20043;-84
2022/01/18 01:08:19;;;;;;;31.92;3.72;;;5.60;99.90;;;;;;5094212;27;20129;-84
2022/01/18 01:10:45;;;;;;;25.17;2.85;;;5.50;99.90;;;;;;5109933;27;20051;-84
2022/01/18 01:13:12;;;;;;;49.20;4.97;;;5.60;99.90;;;;;;5077861;27;20058;-84
2022/01/18 01:15:59;;;;;;;31.20;3.33;;;6.90;99.90;;;;;;5128754;27;20038;-84
2022/01/18 01:34:46;;;;;;;47.33;3.72;;;5.00;99.90;;;;;;5129708;27;20036;-84
2022/01/18 01:45:27;;;;;;;29.60;4.07;;;5.30;99.90;;;;;;5109085;27;20054;-84
2022/01/18 01:47:58;;;;;;;34.53;3.22;;;6.20;99.90;;;;;;5109873;27;20054;-83
2022/01/18 01:50:27;;;;;;;27.85;3.25;;;5.30;99.90;;;;;;5108983;27;20047;-84
2022/01/18 01:52:56;;;;;;;33.53;3.28;;;6.40;99.90;;;;;;5092113;27;20036;-83
2022/01/18 01:55:23;;;;;;;21.33;3.13;;;5.40;99.90;;;;;;5093858;27;20125;-83
2022/01/18 01:57:50;;;;;;;31.95;3.53;;;5.40;99.90;;;;;;5109066;27;20402;-83
2022/01/18 02:00:18;;;;;;;22.75;2.58;;;5.40;99.90;;;;;;5129063;27;20043;-84
2022/01/18 02:02:44;;;;;;;39.97;3.22;;;5.50;99.90;;;;;;5108804;27;20051;-84
2022/01/18 02:05:11;;;;;;;37.63;3.03;;;5.50;99.90;;;;;;5109709;27;20074;-83
2022/01/18 02:07:37;;;;;;;25.88;3.42;;;6.10;99.90;;;;;;5109065;27;20096;-84
2022/01/18 02:10:07;;;;;;;43.45;3.60;;;5.60;99.90;;;;;;5092584;27;20051;-84
2022/01/18 02:12:34;;;;;;;22.73;2.88;;;5.60;99.90;;;;;;5110420;27;20441;-84
2022/01/18 02:15:09;;;;;;;27.75;2.65;;;5.60;99.90;;;;;;5091548;27;20050;-84
2022/01/18 02:23:16;;;;;;;32.53;3.35;;;5.70;99.90;;;;;;5108644;27;20047;-84
2022/01/18 02:25:42;;;;;;;22.95;2.53;;;6.20;99.90;;;;;;5093027;27;20434;-83
2022/01/18 02:28:08;;;;;;;32.35;3.38;;;5.70;99.90;;;;;;5091323;27;20043;-84
2022/01/18 02:30:34;;;;;;;26.20;3.60;;;6.70;99.90;;;;;;5092304;27;20122;-83
2022/01/18 02:32:59;;;;;;;23.40;3.08;;;5.80;99.90;;;;;;5091669;27;20071;-84
2022/01/18 02:35:25;;;;;;;27.00;2.90;;;5.80;99.90;;;;;;5109106;27;20092;-84
2022/01/18 02:37:52;;;;;;;24.75;2.78;;;6.40;99.90;;;;;;5109372;27;20046;-84
2022/01/18 02:40:17;;;;;;;14.75;2.10;;;5.70;99.90;;;;;;5108398;27;20046;-83
2022/01/18 02:42:55;;;;;;;23.98;2.92;;;5.80;99.90;;;;;;5109964;27;20043;-83
2022/01/18 02:45:20;;;;;;;33.67;2.83;;;5.80;99.90;;;;;;5076170;27;20039;-84
2022/01/18 02:47:46;;;;;;;17.33;2.17;;;5.80;99.90;;;;;;5091857;27;20055;-84
2022/01/18 02:50:12;;;;;;;25.00;2.40;;;7.70;99.90;;;;;;5091277;27;20131;-84
2022/01/18 02:52:38;;;;;;;24.65;1.98;;;5.80;99.90;;;;;;5075070;27;20042;-84
2022/01/18 02:55:04;;;;;;;32.13;3.15;;;5.90;99.90;;;;;;5127313;27;20046;-83
2022/01/18 02:57:36;;;;;;;18.27;2.00;;;5.90;99.90;;;;;;5107940;27;20046;-83
2022/01/18 03:00:15;;;;;;;29.45;3.10;;;5.90;99.90;;;;;;5093589;27;20069;-84
2022/01/18 03:05:25;;;;;;;17.88;2.45;;;6.50;99.90;;;;;;5108291;27;20490;-83
2022/01/18 03:07:50;;;;;;;24.30;2.08;;;5.90;99.90;;;;;;5108719;27;20047;-84
2022/01/18 03:10:16;;;;;;;28.00;2.05;;;6.00;99.90;;;;;;5091328;28;20100;-84
2022/01/18 03:12:43;;;;;;;19.00;2.00;;;6.00;99.90;;;;;;5109483;28;20045;-83
2022/01/18 03:15:09;;;;;;;28.45;2.30;;;5.70;99.90;;;;;;5090473;27;20039;-84
2022/01/18 03:17:35;;;;;;;22.55;1.98;;;6.00;99.90;;;;;;5109105;27;20082;-84
2022/01/18 03:20:03;;;;;;;14.00;2.22;;;6.00;99.90;;;;;;5090955;27;20510;-83
2022/01/18 03:22:29;;;;;;;17.70;1.95;;;6.10;99.90;;;;;;5075169;27;20038;-84
2022/01/18 03:30:23;;;;;;;11.27;1.75;;;6.10;99.90;;;;;;5108605;28;20072;-84
2022/01/18 03:32:49;;;;;;;24.05;1.88;;;6.40;99.90;;;;;;5108219;28;20039;-84
2022/01/18 03:35:15;;;;;;;29.00;2.03;;;6.20;99.90;;;;;;5108536;28;20414;-84
2022/01/18 03:37:42;;;;;;;14.23;2.22;;;7.80;99.90;;;;;;5108134;28;20131;-84
2022/01/18 03:40:09;;;;;;;17.30;2.15;;;6.20;99.90;;;;;;5108122;28;20043;-83
2022/01/18 03:42:42;;;;;;;26.05;2.45;;;6.20;99.90;;;;;;5109069;28;20043;-84
2022/01/18 03:45:10;;;;;;;;;;;6.20;99.90;;;;;;5091227;28;20031;-84
2022/01/18 03:47:36;;;;;;;15.98;2.03;;;6.20;99.90;;;;;;5108150;27;19919;-84
2022/01/18 03:50:04;;;;;;;20.70;1.90;;;6.20;99.90;;;;;;5107684;28;20128;-84
2022/01/18 03:52:30;;;;;;;24.80;1.92;;;6.30;99.90;;;;;;5108568;28;20062;-81
2022/01/18 03:54:56;;;;;;;25.15;1.73;;;7.00;99.90;;;;;;5108141;27;20047;-82
2022/01/18 03:57:22;;;;;;;17.20;1.45;;;7.90;99.90;;;;;;5073647;28;20049;-82
2022/01/18 03:59:48;;;;;;;13.38;1.55;;;8.20;99.90;;;;;;5091813;28;20045;-82
2022/01/18 04:02:14;;;;;;;20.42;1.90;;;6.20;99.90;;;;;;5107458;28;20039;-82
2022/01/18 04:04:40;;;;;;;18.95;1.88;;;6.20;99.90;;;;;;5108320;28;20078;-82
2022/01/18 04:07:06;;;;;;;15.43;1.38;;;6.20;99.90;;;;;;5090239;28;20039;-81
2022/01/18 04:09:33;;;;;;;15.90;1.55;;;7.10;99.90;;;;;;5107885;28;20087;-82
2022/01/18 04:11:59;;;;;;;10.38;1.25;;;6.20;99.90;;;;;;5108220;28;20039;-82
2022/01/18 04:14:25;;;;;;;15.02;1.45;;;6.20;99.90;;;;;;5107823;28;20050;-84
2022/01/18 04:17:08;;;;;;;22.50;1.77;;;6.20;99.90;;;;;;5110182;27;20042;-82
2022/01/18 04:28:07;;;;;;;12.73;1.33;;;6.10;99.90;;;;;;5096128;27;20043;-82
2022/01/18 04:30:33;;;;;;;15.80;1.95;;;6.20;99.90;;;;;;5112191;27;20051;-82
2022/01/18 04:32:59;;;;;;;14.95;1.48;;;6.20;99.90;;;;;;5093961;27;20548;-82
2022/01/18 04:35:25;;;;;;;7.47;1.00;;;6.20;99.90;;;;;;5060853;27;20047;-82
2022/01/18 04:37:50;;;;;;;13.80;1.45;;;6.20;99.90;;;;;;5111520;27;20075;-82
2022/01/18 04:40:19;;;;;;;19.50;1.60;;;6.70;99.90;;;;;;5093998;27;20098;-82
2022/01/18 04:50:50;;;;;;;8.35;1.08;;;6.20;99.90;;;;;;5111647;27;20048;-82
2022/01/18 04:53:16;;;;;;;12.98;1.20;;;6.20;99.90;;;;;;5093261;27;20047;-82
2022/01/18 04:55:42;;;;;;;13.60;1.40;;;6.20;99.90;;;;;;5111661;27;20039;-82
2022/01/18 04:58:08;;;;;;;11.65;1.20;;;6.20;99.90;;;;;;5110237;27;20456;-82
2022/01/18 05:00:34;;;;;;;9.65;1.27;;;6.30;99.90;;;;;;5110886;27;20758;-82
2022/01/18 05:02:59;;;;;;;11.93;0.98;;;6.30;99.90;;;;;;5093226;27;20414;-82
2022/01/18 05:05:28;;;;;;;9.23;1.48;;;6.30;99.90;;;;;;5110644;27;20387;-83
2022/01/18 05:07:59;;;;;;;8.35;1.20;;;6.30;99.90;;;;;;5111293;27;20100;-82
2022/01/18 05:10:27;;;;;;;11.85;1.15;;;7.70;99.90;;;;;;5109824;27;20072;-83
2022/01/18 05:12:55;;;;;;;8.05;0.80;;;6.30;99.90;;;;;;5111050;27;20079;-83
2022/01/18 05:21:10;;;;;;;8.65;1.23;;;6.40;99.90;;;;;;5111186;27;20043;-83
2022/01/18 05:23:35;;;;;;;10.20;1.33;;;6.30;99.90;;;;;;5096819;27;20142;-83
2022/01/18 05:26:02;;;;;;;9.65;1.13;;;6.30;99.90;;;;;;5077301;27;20510;-84
2022/01/18 05:28:28;;;;;;;4.95;1.35;;;6.30;99.90;;;;;;5092694;27;20050;-83
2022/01/18 05:30:54;;;;;;;4.78;0.60;;;6.30;99.90;;;;;;5093508;27;20039;-83
2022/01/18 05:33:21;;;;;;;17.60;1.75;;;6.80;99.90;;;;;;5110677;27;20062;-83
2022/01/18 05:35:47;;;;;;;10.23;1.42;;;6.30;99.90;;;;;;5092691;27;20263;-81
2022/01/18 05:38:13;;;;;;;6.55;0.95;;;8.30;99.90;;;;;;5111392;27;20205;-83
2022/01/18 05:40:39;;;;;;;6.30;1.00;;;6.30;99.90;;;;;;5109460;27;20082;-82
2022/01/18 05:43:05;;;;;;;7.90;1.42;;;7.70;99.90;;;;;;5129193;27;20108;-81
2022/01/18 05:45:31;;;;;;;8.38;1.08;;;7.70;99.90;;;;;;5092928;27;20047;-83
2022/01/18 05:47:57;;;;;;;8.40;1.55;;;6.30;99.90;;;;;;5070957;28;20152;-82
2022/01/18 05:50:23;;;;;;;6.78;1.15;;;8.00;99.90;;;;;;5087429;28;20074;-81
2022/01/18 05:52:49;;;;;;;8.48;1.40;;;7.80;99.90;;;;;;5104261;28;20038;-82
2022/01/18 05:55:14;;;;;;;4.55;1.10;;;6.30;99.90;;;;;;5073433;28;20517;-82
2022/01/18 05:57:40;;;;;;;10.27;1.77;;;7.90;99.90;;;;;;5105525;28;20038;-82
2022/01/18 06:00:18;;;;;;;8.77;1.02;;;6.30;99.90;;;;;;5054400;28;20035;-81
2022/01/18 06:02:59;;;;;;;7.28;1.10;;;6.30;99.90;;;;;;5105910;28;20463;-81
2022/01/18 06:09:35;;;;;;;;;;;;;;;;;;;;;
2022/01/18 06:12:01;;;;;;;7.40;1.05;;;6.30;99.90;;;;;;5089872;28;20122;-80
2022/01/18 06:14:27;;;;;;;15.95;1.40;;;7.40;99.90;;;;;;5107588;28;20079;-79
2022/01/18 06:16:52;;;;;;;7.13;1.48;;;7.90;99.90;;;;;;5089019;28;20048;-80
2022/01/18 06:19:18;;;;;;;9.68;1.90;;;6.30;99.90;;;;;;5089540;28;20126;-80
2022/01/18 06:21:44;;;;;;;9.75;0.93;;;6.30;99.90;;;;;;5104658;28;20083;-80
2022/01/18 06:24:11;;;;;;;10.88;0.60;;;6.30;99.90;;;;;;5086156;28;20083;-78
2022/01/18 06:26:38;;;;;;;12.65;1.30;;;8.30;99.90;;;;;;5107406;28;20925;-84
2022/01/18 06:29:06;;;;;;;11.75;1.17;;;6.30;99.90;;;;;;5068469;28;20054;-82
2022/01/18 06:31:31;;;;;;;7.65;1.00;;;7.90;99.90;;;;;;5070713;28;20044;-81
2022/01/18 06:33:57;;;;;;;10.60;1.33;;;7.40;99.90;;;;;;5104736;28;20055;-81
2022/01/18 06:36:26;;;;;;;5.22;0.95;;;6.30;99.90;;;;;;5087966;28;20724;-81
2022/01/18 06:38:51;;;;;;;3.80;0.77;;;6.30;99.90;;;;;;5087567;28;20118;-81
2022/01/18 06:41:17;;;;;;;9.15;1.83;;;6.30;99.90;;;;;;5088588;28;20039;-81
2022/01/18 06:43:43;;;;;;;14.23;1.13;;;6.40;99.90;;;;;;5106660;28;20119;-81
2022/01/18 06:46:09;;;;;;;9.18;1.20;;;6.40;99.90;;;;;;5104990;28;20083;-81
2022/01/18 06:48:34;;;;;;;17.60;1.75;;;6.40;99.90;;;;;;5104049;28;20083;-81
2022/01/18 06:51:00;;;;;;;5.43;1.13;;;6.50;99.90;;;;;;5105573;28;20069;-81
2022/01/18 06:53:31;;;;;;;5.13;1.10;;;6.40;99.90;;;;;;5105507;28;20501;-81
2022/01/18 06:55:57;;;;;;;14.00;1.58;;;6.40;99.90;;;;;;5072980;28;20402;-81
2022/01/18 06:58:23;;;;;;;11.85;2.00;;;6.40;99.90;;;;;;5105237;28;20040;-81
2022/01/18 07:00:48;;;;;;;7.35;1.60;;;6.40;99.90;;;;;;5089383;28;20506;-81
2022/01/18 07:03:15;;;;;;;10.63;1.95;;;6.40;99.90;;;;;;5104477;28;20050;-81
2022/01/18 07:05:41;;;;;;;12.25;1.65;;;6.40;99.90;;;;;;5088624;28;20090;-81
2022/01/18 07:08:06;;;;;;;9.13;1.35;;;6.40;99.90;;;;;;5071344;28;20075;-81
2022/01/18 07:10:32;;;;;;;12.38;2.58;;;6.40;99.90;;;;;;5087448;28;20054;-81
2022/01/18 07:13:00;;;;;;;10.98;2.08;;;6.40;99.90;;;;;;5104011;28;20043;-82
2022/01/18 07:15:26;;;;;;;8.57;1.40;;;6.40;99.90;;;;;;5069738;28;20043;-82
2022/01/18 07:17:51;;;;;;;10.32;2.35;;;6.40;99.90;;;;;;5103325;28;20047;-81
2022/01/18 07:20:17;;;;;;;8.77;1.98;;;6.40;99.90;;;;;;5070505;28;20032;-82
2022/01/18 07:22:43;;;;;;;14.00;1.77;;;6.40;99.90;;;;;;5104177;28;20049;-82
2022/01/18 07:25:17;;;;;;;11.90;2.10;;;7.50;99.90;;;;;;5070232;28;20040;-81
2022/01/18 07:27:43;;;;;;;14.63;1.60;;;6.30;99.90;;;;;;5088216;28;20035;-81
2022/01/18 07:30:10;;;;;;;22.30;2.35;;;6.30;99.90;;;;;;5088630;28;20468;-79
2022/01/18 07:32:35;;;;;;;8.55;1.85;;;6.30;99.90;;;;;;5104476;28;20498;-80
2022/01/18 07:35:02;;;;;;;11.55;1.95;;;6.40;99.90;;;;;;5104124;28;20052;-79
2022/01/18 07:37:28;;;;;;;10.65;1.65;;;6.30;99.90;;;;;;5104384;28;20047;-79
2022/01/18 07:39:54;;;;;;;15.25;2.13;;;6.30;99.90;;;;;;5103427;28;20047;-80
2022/01/18 07:42:23;;;;;;;11.98;1.63;;;6.30;99.90;;;;;;5085117;28;20096;-81
2022/01/18 07:44:49;;;;;;;13.25;1.95;;;6.30;99.90;;;;;;5087821;28;20471;-81
2022/01/18 07:47:17;;;;;;;9.65;1.80;;;6.30;99.90;;;;;;5087553;28;20047;-80
2022/01/18 07:49:43;;;;;;;15.32;1.95;;;8.20;99.90;;;;;;5086067;28;20043;-81
2022/01/18 07:52:08;;;;;;;16.33;1.90;;;6.30;99.90;;;;;;5072616;28;20051;-81
2022/01/18 07:54:37;;;;;;;19.45;2.17;;;6.30;99.90;;;;;;5072483;28;20047;-81
2022/01/18 07:57:03;;;;;;;18.30;2.33;;;7.80;99.90;;;;;;5109134;28;20031;-81
2022/01/18 07:59:28;;;;;;;8.15;1.55;;;6.30;99.90;;;;;;5074166;28;20431;-81
2022/01/18 08:01:55;;;;;;;15.02;2.17;;;7.40;99.90;;;;;;5075498;28;20082;-80
2022/01/18 08:04:21;;;;;;;10.57;2.53;;;6.20;99.90;;;;;;5109754;28;20044;-81
2022/01/18 08:06:46;;;;;;;12.82;2.25;;;7.50;99.90;;;;;;5108308;28;20040;-81
2022/01/18 08:09:16;;;;;;;11.85;1.92;;;6.30;99.90;;;;;;5091829;28;20516;-82
2022/01/18 08:11:42;;;;;;;14.23;2.80;;;6.10;99.90;;;;;;5087340;28;20044;-82
2022/01/18 08:14:13;;;;;;;8.82;2.38;;;6.10;99.90;;;;;;5089222;28;20051;-81
2022/01/18 08:19:10;;;;;;;16.48;2.85;;;6.00;99.90;;;;;;5092331;28;20048;-81
2022/01/18 08:21:36;;;;;;;10.40;2.17;;;6.00;99.90;;;;;;5089901;28;20044;-81
2022/01/18 08:24:04;;;;;;;8.38;1.92;;;6.10;99.90;;;;;;5054236;28;20043;-81
2022/01/18 08:26:30;;;;;;;11.68;2.88;;;6.00;99.90;;;;;;5089621;28;20097;-81
2022/01/18 08:28:56;;;;;;;11.45;2.50;;;6.00;99.90;;;;;;5089782;28;20067;-82
2022/01/18 08:31:21;;;;;;;11.45;2.20;;;6.00;99.90;;;;;;5107865;28;20051;-81
2022/01/18 08:33:49;;;;;;;18.05;2.83;;;7.10;99.90;;;;;;5104921;28;20065;-81
2022/01/18 08:36:15;;;;;;;6.53;2.03;;;7.30;99.90;;;;;;5106546;28;20312;-82
2022/01/18 08:38:47;;;;;;;17.40;2.25;;;6.10;99.90;;;;;;5088432;28;20055;-81
2022/01/18 08:41:13;;;;;;;8.50;2.95;;;6.10;99.90;;;;;;5091074;28;20109;-82
2022/01/18 08:43:39;;;;;;;13.50;2.90;;;7.20;99.90;;;;;;5106211;28;20044;-81
2022/01/18 08:46:04;;;;;;;14.70;3.30;;;6.20;99.90;;;;;;5088368;28;20043;-83
2022/01/18 08:48:31;;;;;;;9.32;2.45;;;6.20;99.90;;;;;;5088799;28;20051;-81
2022/01/18 08:50:57;;;;;;;19.17;3.20;;;8.00;99.90;;;;;;5089294;28;20047;-82
2022/01/18 08:53:23;;;;;;;10.15;2.30;;;6.30;99.90;;;;;;5088384;28;20051;-82
2022/01/18 08:55:51;;;;;;;22.00;3.08;;;6.30;99.90;;;;;;5105342;28;20132;-82
2022/01/18 08:58:16;;;;;;;11.57;2.40;;;6.30;99.90;;;;;;5073350;28;20050;-83
2022/01/18 09:00:42;;;;;;;15.05;2.78;;;6.30;99.90;;;;;;5091105;28;20043;-81
2022/01/18 09:03:10;;;;;;;8.32;1.77;;;6.30;99.90;;;;;;5088783;28;20050;-81
2022/01/18 09:05:37;;;;;;;16.60;2.47;;;6.40;99.90;;;;;;5090477;28;20052;-81
2022/01/18 09:08:06;;;;;;;14.10;2.55;;;6.40;99.90;;;;;;5106707;28;20524;-81
2022/01/18 09:10:32;;;;;;;9.82;1.95;;;6.50;99.90;;;;;;5106329;28;20043;-83
2022/01/18 09:12:58;;;;;;;11.95;2.45;;;6.50;99.90;;;;;;5090590;28;20149;-82
2022/01/18 09:15:26;;;;;;;15.90;3.42;;;6.50;99.90;;;;;;5070297;28;20530;-82
2022/01/18 09:17:53;;;;;;;15.63;2.58;;;8.40;99.90;;;;;;5089420;28;20513;-82
2022/01/18 09:20:24;;;;;;;17.20;2.92;;;5.10;99.90;;;;;;5103931;28;20074;-82
2022/01/18 09:22:52;;;;;;;14.77;2.25;;;6.60;99.90;;;;;;5088142;28;20044;-81
2022/01/18 09:25:29;;;;;;;12.60;2.10;;;6.60;99.90;;;;;;5090140;28;20821;-82
2022/01/18 09:27:56;;;;;;;14.98;2.22;;;6.70;99.90;;;;;;5104735;28;20641;-82
2022/01/18 09:30:26;;;;;;;13.35;1.80;;;7.10;99.90;;;;;;5087397;28;20044;-82
2022/01/18 09:32:52;;;;;;;7.50;1.90;;;6.70;99.90;;;;;;5088478;28;20446;-85
2022/01/18 09:35:19;;;;;;;11.50;2.38;;;6.80;99.90;;;;;;5105323;28;20104;-84
2022/01/18 09:37:45;;;;;;;12.63;1.98;;;6.80;99.90;;;;;;5104925;28;20051;-83
2022/01/18 10:30:35;;;;;;;15.60;2.97;;;7.20;99.90;;;;;;5067106;28;20455;-76
2022/01/18 10:33:26;;;;;;;11.80;2.42;;;7.50;99.90;;;;;;5065596;28;20045;-76
2022/01/18 10:36:12;;;;;;;17.50;2.58;;;7.60;99.90;;;;;;5047454;28;20131;-75
2022/01/18 10:38:40;;;;;;;14.93;2.20;;;7.80;99.90;;;;;;5067545;28;20389;-75
2022/01/18 10:41:34;;;;;;;10.35;2.70;;;7.60;99.90;;;;;;5064882;28;20076;-75
2022/01/18 10:44:03;;;;;;;11.07;2.78;;;7.60;99.90;;;;;;5064171;28;20059;-75
2022/01/18 10:46:37;;;;;;;9.65;2.42;;;8.70;99.90;;;;;;5047808;28;20178;-75
2022/01/18 10:49:04;;;;;;;21.15;2.60;;;7.70;99.90;;;;;;5063415;28;20049;-75
2022/01/18 10:51:32;;;;;;;10.52;2.22;;;7.70;99.90;;;;;;5063665;28;20060;-75
2022/01/18 10:54:01;;;;;;;7.10;1.88;;;7.70;99.90;;;;;;5063834;28;20429;-75
2022/01/18 10:56:41;;;;;;;6.07;1.92;;;7.70;99.90;;;;;;5064242;28;20491;-75
2022/01/18 10:59:18;;;;;;;6.95;2.28;;;7.70;99.90;;;;;;5065374;28;20041;-75
2022/01/18 11:01:44;;;;;;;10.93;2.28;;;7.60;99.90;;;;;;5062421;28;20048;-76
2022/01/18 11:04:14;;;;;;;9.25;2.53;;;7.70;99.90;;;;;;5046854;28;20044;-75
2022/01/18 11:06:43;;;;;;;10.48;2.58;;;7.50;99.90;;;;;;5045759;28;20131;-75
2022/01/18 11:09:14;;;;;;;12.88;2.30;;;7.50;99.90;;;;;;5046168;28;20047;-75
2022/01/18 11:11:44;;;;;;;10.90;2.38;;;7.90;99.90;;;;;;5063732;28;20087;-75
2022/01/18 11:14:13;;;;;;;11.60;2.55;;;7.50;99.90;;;;;;5063579;28;20037;-75
2022/01/18 11:16:43;;;;;;;13.60;2.53;;;7.50;99.90;;;;;;5065153;28;20079;-76
2022/01/18 11:19:18;;;;;;;14.60;2.10;;;7.50;99.90;;;;;;5063898;28;20041;-75
2022/01/18 11:21:46;;;;;;;11.30;2.05;;;7.50;99.90;;;;;;5046348;28;20055;-75
2022/01/18 11:24:14;;;;;;;11.45;2.38;;;7.60;99.90;;;;;;5063309;28;20144;-75
2022/01/18 11:26:41;;;;;;;16.48;2.10;;;7.60;99.90;;;;;;5061928;28;20493;-75
2022/01/18 11:29:08;;;;;;;13.30;2.05;;;7.60;99.90;;;;;;5062830;28;20122;-75
2022/01/18 11:31:34;;;;;;;4.30;2.03;;;7.60;99.90;;;;;;5031985;28;20095;-74
2022/01/18 11:34:00;;;;;;;8.65;2.13;;;7.60;99.90;;;;;;5050306;28;20044;-74
2022/01/18 11:36:33;;;;;;;12.07;2.17;;;7.50;99.90;;;;;;5048429;28;20048;-74
2022/01/18 11:39:03;;;;;;;6.47;1.40;;;7.60;99.90;;;;;;5049492;28;20106;-74
2022/01/18 11:41:34;;;;;;;9.13;1.88;;;7.80;99.90;;;;;;5049823;28;20048;-74
2022/01/18 11:44:16;;;;;;;11.98;1.90;;;7.60;99.90;;;;;;5031828;28;20053;-75
2022/01/18 11:46:50;;;;;;;16.05;2.35;;;7.60;99.90;;;;;;5049730;28;20055;-75
2022/01/18 11:49:21;;;;;;;6.63;1.48;;;7.60;99.90;;;;;;5049056;28;20052;-75
2022/01/18 11:52:00;;;;;;;13.90;2.13;;;7.70;99.90;;;;;;5048797;28;20489;-75
2022/01/18 11:54:57;;;;;;;12.68;1.70;;;7.80;99.90;;;;;;5049742;28;20131;-75
2022/01/18 11:57:23;;;;;;;14.68;2.33;;;7.80;99.90;;;;;;5048219;28;20497;-75
2022/01/18 12:00:12;;;;;;;14.20;1.58;;;7.80;99.90;;;;;;5049105;28;20047;-75
2022/01/18 12:02:42;;;;;;;10.85;1.90;;;8.00;99.90;;;;;;5042604;28;20061;-76
2022/01/18 12:05:21;;;;;;;5.57;1.48;;;7.70;99.90;;;;;;5031911;28;20049;-75
2022/01/18 12:07:57;;;;;;;9.82;2.35;;;7.70;99.90;;;;;;5049733;28;20413;-75
2022/01/18 12:10:38;;;;;;;7.00;1.50;;;7.70;99.90;;;;;;5048100;28;20045;-75
2022/01/18 12:13:34;;;;;;;4.47;1.70;;;7.70;99.90;;;;;;5048751;28;20048;-76
2022/01/18 12:16:03;;;;;;;8.70;1.73;;;7.70;99.90;;;;;;5046250;28;20123;-76
2022/01/18 12:18:31;;;;;;;14.15;2.10;;;9.00;99.90;;;;;;5047917;28;20444;-76
2022/01/18 12:21:03;;;;;;;8.68;2.08;;;7.80;99.90;;;;;;5032419;28;20040;-76
2022/01/18 12:23:32;;;;;;;8.98;1.75;;;7.70;99.90;;;;;;5048582;28;20404;-76
2022/01/18 12:34:35;;;;;;;;;;;7.60;99.90;;;;;;5048401;28;20048;-75
2022/01/18 12:37:24;;;;;;;10.13;1.63;;;7.60;99.90;;;;;;5047477;28;20381;-75
2022/01/18 12:39:49;;;;;;;11.15;2.15;;;7.60;99.90;;;;;;5029322;28;20408;-77
2022/01/18 12:44:20;;;;;;;10.90;2.53;;;7.50;99.90;;;;;;5046863;28;20044;-76
2022/01/18 12:45:08;;;;;;;16.70;2.80;;;7.50;99.90;;;;;;5046325;28;20052;-76
2022/01/18 12:47:37;;;;;;;13.73;3.65;;;7.50;99.90;;;;;;5047112;28;20366;-75
2022/01/18 12:50:07;;;;;;;11.63;2.50;;;7.50;99.90;;;;;;5047887;28;20064;-74
2022/01/18 12:52:48;;;;;;;11.25;2.80;;;7.40;99.90;;;;;;5045648;28;20041;-75
2022/01/18 12:55:38;;;;;;;11.77;3.25;;;7.50;99.90;;;;;;5030777;28;20045;-75
2022/01/18 12:58:24;;;;;;;12.40;2.90;;;7.40;99.90;;;;;;5045902;28;20057;-75
2022/01/18 13:00:54;;;;;;;8.05;2.83;;;7.40;99.90;;;;;;5045712;28;20053;-75
2022/01/18 13:03:21;;;;;;;12.18;3.22;;;8.00;99.90;;;;;;5047527;28;20163;-75
2022/01/18 13:05:48;;;;;;;10.43;3.05;;;7.40;99.90;;;;;;5045866;28;20084;-75
2022/01/18 13:08:16;;;;;;;13.30;3.33;;;7.40;99.90;;;;;;5030792;28;20395;-75
2022/01/18 13:11:00;;;;;;;10.45;2.92;;;7.50;99.90;;;;;;5029270;28;20045;-74
2022/01/18 13:13:32;;;;;;;9.13;3.00;;;7.40;99.90;;;;;;5047497;28;20509;-75
2022/01/18 13:24:39;;;;;;;9.80;3.55;;;7.50;99.90;;;;;;5047120;28;20055;-75
2022/01/18 13:27:07;;;;;;;12.70;4.05;;;7.50;99.90;;;;;;5046324;28;20048;-75
2022/01/18 13:29:33;;;;;;;8.52;2.75;;;7.50;99.90;;;;;;5046627;28;20124;-75
2022/01/18 13:32:17;;;;;;;10.48;3.45;;;7.50;99.90;;;;;;5012825;28;20466;-75
2022/01/18 13:34:45;;;;;;;11.52;3.42;;;7.50;99.90;;;;;;5047472;28;20045;-75
2022/01/18 13:37:14;;;;;;;12.35;3.75;;;7.60;99.90;;;;;;5046913;28;20049;-75
2022/01/18 13:39:46;;;;;;;19.38;3.63;;;7.70;99.90;;;;;;5046247;28;20446;-76
2022/01/18 13:42:26;;;;;;;12.15;3.17;;;7.70;99.90;;;;;;5048110;28;20061;-74
2022/01/18 13:45:31;;;;;;;20.95;3.97;;;7.70;99.90;;;;;;5028928;28;20544;-73
2022/01/18 13:48:02;;;;;;;12.95;4.25;;;7.70;99.90;;;;;;5045907;28;20398;-74
2022/01/18 13:50:40;;;;;;;15.45;3.78;;;7.70;99.90;;;;;;5048330;28;20075;-74
2022/01/18 13:53:10;;;;;;;10.65;3.72;;;7.60;99.90;;;;;;5046165;28;20048;-74
2022/01/18 13:55:44;;;;;;;10.55;3.65;;;7.70;99.90;;;;;;5047343;28;20131;-75
2022/01/18 13:58:10;;;;;;;13.05;3.40;;;7.70;99.90;;;;;;5045884;28;20572;-75
2022/01/18 14:00:36;;;;;;;14.63;4.18;;;7.70;99.90;;;;;;4996001;28;20135;-75
2022/01/18 14:03:02;;;;;;;9.48;3.72;;;7.60;99.90;;;;;;5046701;28;20045;-75
2022/01/18 14:05:27;;;;;;;13.93;3.80;;;7.50;99.90;;;;;;5046235;28;20052;-75
2022/01/18 14:08:10;;;;;;;9.82;3.67;;;7.50;99.90;;;;;;5046490;28;20037;-75
2022/01/18 14:10:36;;;;;;;16.52;4.00;;;7.40;99.90;;;;;;5045737;28;20083;-75
2022/01/18 14:13:03;;;;;;;19.75;4.70;;;7.30;99.90;;;;;;5046981;28;20053;-75
2022/01/18 14:15:42;;;;;;;14.20;3.50;;;7.30;99.90;;;;;;5047910;28;20079;-75
2022/01/18 14:18:09;;;;;;;11.85;4.07;;;8.30;99.90;;;;;;5045912;28;20495;-75
2022/01/18 14:20:35;;;;;;;12.55;3.95;;;7.30;99.90;;;;;;5047375;28;20084;-75
2022/01/18 14:23:02;;;;;;;8.27;3.95;;;7.30;99.90;;;;;;5044803;28;20114;-76
2022/01/18 14:25:31;;;;;;;12.10;4.35;;;7.30;99.90;;;;;;5046944;28;20045;-76
2022/01/18 14:28:11;;;;;;;15.77;4.38;;;8.50;99.90;;;;;;5045563;28;20079;-76
2022/01/18 14:30:42;;;;;;;13.10;3.97;;;7.20;99.90;;;;;;5044711;28;20057;-76
2022/01/18 14:33:12;;;;;;;13.63;4.13;;;7.20;99.90;;;;;;5047588;28;20041;-76
2022/01/18 14:35:41;;;;;;;18.35;4.63;;;7.10;99.90;;;;;;5045798;28;20048;-76
2022/01/18 14:38:14;;;;;;;14.52;3.72;;;8.00;99.90;;;;;;5045773;28;20056;-76
2022/01/18 14:40:46;;;;;;;9.52;3.28;;;7.00;99.90;;;;;;5028747;28;20421;-76
2022/01/18 14:43:26;;;;;;;13.50;3.83;;;6.90;99.90;;;;;;5044807;28;20056;-76
2022/01/18 14:48:24;;;;;;;18.20;4.97;;;6.80;99.90;;;;;;5045799;28;20095;-76
2022/01/18 14:50:50;;;;;;;12.88;3.88;;;6.70;99.90;;;;;;5047107;28;20068;-76
2022/01/18 14:53:17;;;;;;;20.40;4.72;;;6.70;99.90;;;;;;5044687;28;20052;-76
2022/01/18 14:55:43;;;;;;;19.20;4.38;;;6.60;99.90;;;;;;5045070;28;20052;-76
2022/01/18 14:58:10;;;;;;;22.02;4.05;;;6.70;99.90;;;;;;5029067;28;20132;-76
2022/01/18 15:00:37;;;;;;;12.80;4.68;;;6.60;99.90;;;;;;5028069;28;20508;-76
2022/01/18 15:03:04;;;;;;;16.73;4.15;;;6.60;99.90;;;;;;5046221;28;20120;-76
2022/01/18 15:05:31;;;;;;;12.35;4.18;;;6.60;99.90;;;;;;4996738;28;20040;-76
2022/01/18 15:07:57;;;;;;;13.93;3.83;;;6.50;99.90;;;;;;5050627;28;20509;-76
2022/01/18 15:10:23;;;;;;;13.82;4.28;;;6.50;99.90;;;;;;5049718;28;20060;-76
2022/01/18 15:12:50;;;;;;;12.00;3.60;;;6.60;99.90;;;;;;5032466;28;20490;-76
2022/01/18 15:15:18;;;;;;;18.25;4.03;;;6.50;99.90;;;;;;5049479;28;20107;-76
2022/01/18 15:17:45;;;;;;;10.85;3.60;;;6.50;99.90;;;;;;5047522;28;20128;-76
2022/01/18 15:20:12;;;;;;;14.32;4.28;;;6.50;99.90;;;;;;5049206;28;20048;-76
2022/01/18 15:22:38;;;;;;;15.95;4.78;;;6.50;99.90;;;;;;5047855;28;20041;-76
2022/01/18 15:25:05;;;;;;;15.93;4.63;;;6.40;99.90;;;;;;5048937;28;20049;-76
2022/01/18 15:27:30;;;;;;;17.02;4.55;;;6.40;99.90;;;;;;5049300;28;20041;-76